Weather History for College Park, MD

Change the Weather History Date:

Friday, January 18, 2013

  Actual Average Record
Temperature  
Mean Temperature 35 °F -  
Max Temperature 41 °F 41 °F 69 °F (1990)
Min Temperature 29 °F 24 °F -9 °F (1957)
Degree Days  
Heating Degree Days 30    
Moisture  
Dew Point 20 °F    
Average Humidity 53    
Maximum Humidity 75    
Minimum Humidity 31    
Precipitation  
Precipitation 0.00 in - - ()
Sea Level Pressure  
Sea Level Pressure 30.37 in    
Wind  
Wind Speed 6 mph (NW)    
Max Wind Speed 14 mph    
Max Gust Speed 25 mph    
Visibility 10 miles    
Events      
Averages and records for this station are not official NWS values.
T = Trace of Precipitation, MM = Missing Value Source: NWS Daily Summary

Daily Weather History Graph

Daily Weather History Graph

Search for Another Location

Airport:

Trip Planner

Search our weather history database for the weather conditions in past years. The results will help you decide how hot, cold, wet, or windy it might be!

Date:

Astronomy

Jan. 18, 2013 Rise Set
Actual Time 7:23 AM EST 5:13 PM EST
Civil Twilight 6:54 AM EST 5:42 PM EST
Nautical Twilight 6:21 AM EST 6:14 PM EST
Astronomical Twilight 5:50 AM EST 6:46 PM EST
Moon 11:05 AM EST (1/18) No Moon Set
Length of Visible Light 10h 47m
Length of Day
9h 49m
Waxing Crescent, 47% of the Moon is Illuminated
Jan 18
Waxing Crescent
Jan 18
First Quarter
Jan 26
Full
Feb 3
Last Quarter
Feb 10
New

Hourly Weather History & Observations

Time (EST) Temp. Windchill Dew Point Humidity Pressure Visibility Wind Dir Wind Speed Gust Speed Precip Events Conditions
12:10 AM 40.8 °F - 32.0 °F 71% 30.06 in 10.0 mi Calm Calm - N/A   Clear
12:30 AM 40.5 °F 37.3 °F 32.0 °F 72% 30.09 in 10.0 mi West 4.6 mph - N/A   Clear
12:55 AM 41.0 °F 39.0 °F 31.6 °F 69% 30.11 in 10.0 mi WNW 3.5 mph - N/A   Clear
1:15 AM 41.0 °F 39.0 °F 31.1 °F 68% 30.10 in 10.0 mi NNW 3.5 mph - N/A   Clear
1:35 AM 40.6 °F 38.6 °F 30.7 °F 68% 30.12 in 10.0 mi NW 3.5 mph - N/A   Clear
1:55 AM 40.5 °F 37.3 °F 30.4 °F 67% 30.13 in 10.0 mi West 4.6 mph - N/A   Clear
2:20 AM 40.3 °F 38.2 °F 30.2 °F 67% 30.14 in 10.0 mi West 3.5 mph - N/A   Clear
2:40 AM 39.6 °F 34.0 °F 30.2 °F 69% 30.14 in 10.0 mi NW 8.1 mph - N/A   Clear
3:00 AM 39.7 °F 34.9 °F 29.3 °F 66% 30.15 in 10.0 mi WNW 6.9 mph - N/A   Clear
3:25 AM 39.2 °F 35.0 °F 28.9 °F 67% 30.15 in 10.0 mi WNW 5.8 mph - N/A   Clear
3:45 AM 38.8 °F 33.2 °F 28.9 °F 68% 30.16 in 10.0 mi WNW 8.1 mph - N/A   Clear
4:25 AM 38.7 °F 32.9 °F 27.5 °F 64% 30.18 in 10.0 mi WNW 8.1 mph - N/A   Clear
4:50 AM 39.0 °F 34.0 °F 27.1 °F 62% 30.19 in 10.0 mi West 6.9 mph - N/A   Scattered Clouds
5:10 AM 39.6 °F 33.0 °F 27.1 °F 61% 30.21 in 10.0 mi West 10.4 mph 17.3 mph N/A   Overcast
5:30 AM 40.1 °F 34.1 °F 26.6 °F 59% 30.22 in 10.0 mi NW 9.2 mph 21.9 mph N/A   Overcast
5:50 AM 39.6 °F 33.5 °F 25.9 °F 58% 30.23 in 10.0 mi NNW 9.2 mph - N/A   Mostly Cloudy
6:15 AM 38.8 °F 33.2 °F 24.3 °F 56% 30.25 in 10.0 mi NNW 8.1 mph - N/A   Clear
6:35 AM 38.1 °F 30.7 °F 25.7 °F 61% 30.28 in 10.0 mi NNW 11.5 mph 16.1 mph N/A   Mostly Cloudy
6:55 AM 37.6 °F 29.6 °F 22.1 °F 54% 30.29 in 10.0 mi NW 12.7 mph 21.9 mph N/A   Mostly Cloudy
7:15 AM 36.7 °F 30.5 °F 21.9 °F 55% 30.31 in 10.0 mi NNW 8.1 mph - N/A   Mostly Cloudy
7:40 AM 35.6 °F 26.6 °F 23.5 °F 62% 30.35 in 10.0 mi NW 13.8 mph 19.6 mph N/A   Scattered Clouds
8:00 AM 35.8 °F 28.3 °F 23.5 °F 61% 30.36 in 10.0 mi NNW 10.4 mph 19.6 mph N/A   Scattered Clouds
8:20 AM 35.6 °F 28.6 °F 23.4 °F 61% 30.38 in 10.0 mi NNW 9.2 mph 17.3 mph N/A   Scattered Clouds
8:40 AM 36.0 °F 27.1 °F 19.8 °F 52% 30.41 in 10.0 mi NNW 13.8 mph 23.0 mph N/A   Scattered Clouds
9:05 AM 36.5 °F 28.7 °F 18.5 °F 48% 30.43 in 10.0 mi NW 11.5 mph 19.6 mph N/A   Clear
9:25 AM 36.0 °F 27.5 °F 17.2 °F 47% 30.44 in 10.0 mi NW 12.7 mph 25.3 mph N/A   Scattered Clouds
9:45 AM 37.2 °F 29.6 °F 18.9 °F 48% 30.46 in 10.0 mi NW 11.5 mph 17.3 mph N/A   Clear
10:30 AM 36.7 °F 28.4 °F 15.3 °F 42% 30.48 in 7.0 mi NNW 12.7 mph 18.4 mph N/A   Clear
10:50 AM 37.0 °F 29.3 °F 15.4 °F 41% - 10.0 mi NW 11.5 mph 16.1 mph N/A   Clear
11:10 AM 36.7 °F 28.0 °F 12.0 °F 36% 30.48 in 10.0 mi NNW 13.8 mph 19.6 mph N/A   Clear
11:30 AM 36.9 °F 29.1 °F 13.5 °F 38% 30.49 in 10.0 mi WNW 11.5 mph 17.3 mph N/A   Clear
11:55 AM 36.9 °F 30.1 °F 13.1 °F 38% 30.48 in 10.0 mi NW 9.2 mph 17.3 mph N/A   Clear
12:15 PM 36.7 °F 29.4 °F 12.9 °F 38% 30.48 in 10.0 mi WNW 10.4 mph - N/A   Clear
12:35 PM 36.9 °F 31.4 °F 12.7 °F 37% 30.47 in 10.0 mi NW 6.9 mph - N/A   Clear
12:55 PM 37.6 °F 31.0 °F 13.5 °F 37% 30.46 in 10.0 mi WNW 9.2 mph - N/A   Clear
1:40 PM 37.8 °F 31.3 °F 10.0 °F 32% 30.47 in 10.0 mi NW 9.2 mph 17.3 mph N/A   Clear
2:00 PM 37.8 °F 30.2 °F 9.5 °F 31% 30.48 in 10.0 mi NNW 11.5 mph - N/A   Clear
2:20 PM 37.9 °F 34.4 °F 10.4 °F 32% 30.49 in 10.0 mi NNW 4.6 mph - N/A   Clear
2:45 PM 38.3 °F 32.5 °F 10.2 °F 31% 30.48 in 10.0 mi WNW 8.1 mph - N/A   Clear
3:05 PM 38.3 °F 34.8 °F 9.9 °F 31% 30.49 in 10.0 mi NW 4.6 mph - N/A   Clear
3:25 PM 37.9 °F 34.4 °F 10.4 °F 32% 30.49 in 10.0 mi NW 4.6 mph - N/A   Clear
3:45 PM 37.9 °F 32.7 °F 11.1 °F 33% 30.49 in 10.0 mi NW 6.9 mph - N/A   Clear
4:10 PM 37.8 °F 35.3 °F 11.3 °F 34% 30.50 in 10.0 mi West 3.5 mph - N/A   Clear
4:30 PM 37.6 °F - 11.7 °F 34% 30.50 in 10.0 mi Calm Calm - N/A   Clear
4:45 PM 37.0 °F - 11.7 °F 35% 30.51 in 10.0 mi Calm Calm - N/A   Clear
5:10 PM 36.5 °F - 11.8 °F 36% 30.51 in 10.0 mi Calm Calm - N/A   Clear
5:35 PM 34.2 °F - 17.1 °F 50% 30.50 in 10.0 mi Calm Calm - N/A   Clear
5:55 PM 33.6 °F - 17.4 °F 52% 30.50 in 10.0 mi Calm Calm - N/A   Clear
6:15 PM 32.2 °F - 18.7 °F 58% 30.51 in 10.0 mi Calm Calm - N/A   Clear
6:35 PM 31.5 °F - 18.7 °F 59% 30.50 in 10.0 mi Calm Calm - N/A   Clear
7:00 PM 30.9 °F - 19.4 °F 62% 30.50 in 10.0 mi Calm Calm - N/A   Clear
7:20 PM 30.4 °F - 20.5 °F 67% 30.50 in 10.0 mi Calm Calm - N/A   Clear
8:00 PM 29.8 °F - 21.0 °F 70% 30.50 in 10.0 mi Calm Calm - N/A   Clear
8:25 PM 29.3 °F - 20.7 °F 70% 30.50 in 10.0 mi Calm Calm - N/A   Clear
9:50 PM 29.5 °F - 22.5 °F 75% 30.49 in 10.0 mi Calm Calm - N/A   Clear
10:10 PM 29.1 °F - 22.1 °F 75% 30.49 in 10.0 mi Calm Calm - N/A   Clear
10:55 PM 32.0 °F - 17.4 °F 55% 30.47 in 10.0 mi Calm Calm - N/A   Clear
11:10 PM 32.7 °F - 17.6 °F 54% 30.46 in 10.0 mi Calm Calm - N/A   Clear
11:35 PM 32.5 °F 29.3 °F 19.2 °F 58% 30.45 in 10.0 mi South 3.5 mph - N/A   Clear
11:55 PM 32.9 °F - 20.3 °F 60% 30.44 in 10.0 mi Calm Calm - N/A   Clear